Time;durP1;ratioP1;P1;durP2;ratioP2;P2;SDS_P1;SDS_P2;PMS_P1;PMS_P2;Temp;Humidity;BMP_temperature;BMP_pressure;BME280_temperature;BME280_humidity;BME280_pressure;Samples;Min_cycle;Max_cycle;Signal;HPM_P1;HPM_P2
2022/10/01 00:01:58;;;;;;;0.40;0.40;;;;;;;13.00;99.52;99299.88;4952906;29;20054;-84
2022/10/01 00:04:26;;;;;;;0.40;0.40;;;;;;;12.98;99.89;99293.06;4937332;29;20054;-83
2022/10/01 00:06:53;;;;;;;0.40;0.40;;;;;;;12.98;100.00;99295.78;4953674;29;20062;-83
2022/10/01 00:09:20;;;;;;;0.40;0.40;;;;;;;12.95;100.00;99294.41;4953859;29;20059;-84
2022/10/01 00:11:47;;;;;;;0.40;0.40;;;;;;;12.93;100.00;99284.88;4954321;29;20048;-83
2022/10/01 00:14:14;;;;;;;0.40;0.40;;;;;;;12.91;100.00;99285.16;4954148;29;20437;-83
2022/10/01 00:16:40;;;;;;;0.40;0.40;;;;;;;12.93;100.00;99285.69;4953883;29;20055;-84
2022/10/01 00:19:11;;;;;;;0.40;0.40;;;;;;;12.90;100.00;99274.56;4953741;29;20142;-83
2022/10/01 00:21:38;;;;;;;0.40;0.40;;;;;;;12.86;100.00;99271.53;4961147;29;20077;-84
2022/10/01 00:24:05;;;;;;;0.40;0.40;;;;;;;12.89;100.00;99276.47;4958841;29;20422;-83
2022/10/01 00:26:36;;;;;;;0.40;0.40;;;;;;;12.86;100.00;99279.66;4969092;28;20059;-84
2022/10/01 00:29:06;;;;;;;0.40;0.40;;;;;;;12.85;100.00;99283.44;4953486;29;20065;-82
2022/10/01 00:31:33;;;;;;;0.40;0.40;;;;;;;12.86;100.00;99279.66;4954171;29;20154;-84
2022/10/01 00:34:04;;;;;;;0.40;0.40;;;;;;;12.87;100.00;99275.06;4954273;29;20506;-83
2022/10/01 00:36:31;;;;;;;0.40;0.40;;;;;;;12.87;100.00;99275.88;4968831;28;20055;-83
2022/10/01 00:38:59;;;;;;;0.40;0.40;;;;;;;12.88;100.00;99279.41;4953557;28;20207;-83
2022/10/01 00:41:31;;;;;;;0.40;0.40;;;;;;;12.90;100.00;99275.38;4953677;29;20059;-82
2022/10/01 00:44:02;;;;;;;0.35;0.35;;;;;;;12.86;100.00;99276.94;4953706;29;20063;-83
2022/10/01 00:46:40;;;;;;;0.40;0.40;;;;;;;12.91;100.00;99281.59;4953758;29;20051;-84
2022/10/01 00:49:11;;;;;;;0.40;0.40;;;;;;;12.86;100.00;99278.84;4953483;29;20059;-84
2022/10/01 00:51:43;;;;;;;0.40;0.40;;;;;;;12.80;100.00;99277.97;4952371;29;20054;-84
2022/10/01 00:54:19;;;;;;;0.40;0.40;;;;;;;12.80;100.00;99283.38;4952049;29;20423;-84
2022/10/01 00:56:46;;;;;;;0.40;0.40;;;;;;;12.77;100.00;99278.47;4953248;29;20086;-84
2022/10/01 00:59:15;;;;;;;0.40;0.40;;;;;;;12.73;100.00;99280.03;4953153;28;20055;-84
2022/10/01 01:01:42;;;;;;;0.40;0.40;;;;;;;12.73;100.00;99283.56;4936548;29;20047;-84
2022/10/01 01:04:15;;;;;;;0.45;0.45;;;;;;;12.76;100.00;99280.38;4952973;29;20071;-83
2022/10/01 01:06:54;;;;;;;0.40;0.40;;;;;;;12.75;100.00;99273.28;4952726;29;20051;-83
2022/10/01 01:09:24;;;;;;;0.40;0.40;;;;;;;12.68;100.00;99277.25;4953111;29;20150;-84
2022/10/01 01:12:01;;;;;;;0.40;0.40;;;;;;;12.69;100.00;99270.78;4968156;28;20046;-84
2022/10/01 01:14:50;;;;;;;0.40;0.40;;;;;;;12.72;100.00;99276.50;4953647;29;20183;-83
2022/10/01 01:17:32;;;;;;;0.45;0.45;;;;;;;12.75;100.00;99276.00;4953045;29;20051;-83
2022/10/01 01:20:18;;;;;;;0.40;0.40;;;;;;;12.75;100.00;99281.41;4952018;29;20125;-83
2022/10/01 01:22:53;;;;;;;0.50;0.50;;;;;;;12.73;100.00;99282.75;4953204;29;20075;-83
2022/10/01 01:25:24;;;;;;;0.40;0.40;;;;;;;12.74;100.00;99289.81;4951669;29;20062;-84
2022/10/01 01:28:03;;;;;;;0.40;0.40;;;;;;;12.78;100.00;99282.81;4951623;29;20224;-83
2022/10/01 01:30:31;;;;;;;0.40;0.40;;;;;;;12.77;100.00;99273.88;4952647;28;20514;-83
2022/10/01 01:33:13;;;;;;;0.40;0.40;;;;;;;12.79;100.00;99274.44;4967528;28;20050;-83
2022/10/01 01:36:03;;;;;;;0.40;0.40;;;;;;;12.83;100.00;99263.09;4955867;28;20047;-84
2022/10/01 01:38:36;;;;;;;0.40;0.40;;;;;;;12.80;100.00;99259.81;4977398;28;20609;-83
2022/10/01 01:41:05;;;;;;;0.40;0.40;;;;;;;12.82;100.00;99265.00;4959335;28;20081;-83
2022/10/01 01:43:35;;;;;;;0.40;0.40;;;;;;;12.80;100.00;99261.72;4961625;28;20047;-84
2022/10/01 01:46:04;;;;;;;0.40;0.40;;;;;;;12.83;100.00;99258.50;4968193;28;20053;-83
2022/10/01 01:48:35;;;;;;;0.40;0.40;;;;;;;12.84;100.00;99264.72;4969017;28;20054;-84
2022/10/01 01:51:10;;;;;;;0.45;0.45;;;;;;;12.84;100.00;99265.56;4970993;28;20055;-83
2022/10/01 01:53:38;;;;;;;0.40;0.40;;;;;;;12.83;100.00;99261.19;4970547;28;20053;-83
2022/10/01 01:56:06;;;;;;;0.40;0.40;;;;;;;12.82;100.00;99262.28;4972396;28;20154;-82
2022/10/01 01:58:37;;;;;;;0.40;0.40;;;;;;;12.84;100.00;99262.00;4971810;28;20199;-84
2022/10/01 02:01:04;;;;;;;0.40;0.40;;;;;;;12.83;100.00;99260.38;4971666;28;20150;-84
2022/10/01 02:03:32;;;;;;;0.40;0.40;;;;;;;12.80;100.00;99261.72;4987182;28;20053;-83
2022/10/01 02:06:43;;;;;;;0.40;0.40;;;;;;;12.80;100.00;99257.09;4971600;28;20055;-83
2022/10/01 02:09:26;;;;;;;0.40;0.40;;;;;;;12.73;100.00;99256.47;4968544;28;20053;-83
2022/10/01 02:12:19;;;;;;;0.43;0.43;;;;;;;12.70;100.00;99254.28;4971593;28;20054;-83
2022/10/01 02:14:53;;;;;;;0.40;0.40;;;;;;;12.71;100.00;99257.78;4985480;28;20130;-83
2022/10/01 02:17:28;;;;;;;0.50;0.50;;;;;;;12.66;100.00;99252.31;4970532;28;20502;-84
2022/10/01 02:20:00;;;;;;;0.50;0.50;;;;;;;12.61;100.00;99247.69;4971458;28;20537;-82
2022/10/01 02:22:41;;;;;;;0.40;0.40;;;;;;;12.58;100.00;99245.47;4970913;28;20139;-83
2022/10/01 02:25:09;;;;;;;0.40;0.40;;;;;;;12.58;100.00;99246.31;4970625;28;20074;-84
2022/10/01 02:27:43;;;;;;;0.43;0.43;;;;;;;12.60;100.00;99248.75;4970248;28;20501;-84
2022/10/01 02:30:11;;;;;;;0.50;0.50;;;;;;;12.58;100.00;99240.03;4970004;28;20420;-83
2022/10/01 02:32:39;;;;;;;0.50;0.50;;;;;;;12.60;100.00;99231.69;4983609;28;20051;-83
2022/10/01 02:35:09;;;;;;;0.80;0.80;;;;;;;12.58;100.00;99240.03;4972822;28;20054;-83
2022/10/01 02:37:36;;;;;;;0.50;0.50;;;;;;;12.58;100.00;99235.47;4970579;28;20426;-83
2022/10/01 02:40:06;;;;;;;0.70;0.70;;;;;;;12.57;100.00;99230.28;4970180;28;20076;-84
2022/10/01 02:42:34;;;;;;;0.60;0.60;;;;;;;12.58;100.00;99235.47;4971844;28;20082;-83
2022/10/01 02:45:03;;;;;;;0.43;0.43;;;;;;;12.60;100.00;99226.25;4969874;28;20077;-83
2022/10/01 02:47:38;;;;;;;0.50;0.50;;;;;;;12.63;100.00;99220.34;4971423;28;20051;-82
2022/10/01 02:50:06;;;;;;;0.50;0.50;;;;;;;12.63;100.00;99223.03;4970329;28;20470;-83
2022/10/01 02:52:40;;;;;;;0.50;0.50;;;;;;;12.63;100.00;99223.84;4970201;28;20058;-83
2022/10/01 02:55:36;;;;;;;1.13;1.07;;;;;;;12.65;100.00;99226.31;4970244;28;20113;-83
2022/10/01 02:58:04;;;;;;;0.57;0.57;;;;;;;12.60;100.00;99223.56;4953492;28;20078;-83
2022/10/01 03:00:31;;;;;;;0.77;0.77;;;;;;;12.61;100.00;99211.66;4970200;28;20082;-83
2022/10/01 03:02:58;;;;;;;0.50;0.50;;;;;;;12.59;100.00;99211.91;4974038;28;20051;-83
2022/10/01 03:05:26;;;;;;;0.45;0.45;;;;;;;12.60;100.00;99202.72;4979508;28;20059;-82
2022/10/01 03:07:53;;;;;;;0.50;0.50;;;;;;;12.63;100.00;99215.72;4981890;28;20498;-84
2022/10/01 03:10:20;;;;;;;0.50;0.50;;;;;;;12.62;100.00;99213.31;4974400;28;20558;-84
2022/10/01 03:12:47;;;;;;;0.60;0.60;;;;;;;12.61;100.00;99211.66;4974752;28;20065;-84
2022/10/01 03:15:16;;;;;;;0.60;0.60;;;;;;;12.61;100.00;99209.78;4974309;28;20051;-83
2022/10/01 03:17:43;;;;;;;0.40;0.40;;;;;;;12.62;100.00;99221.41;4974388;28;20496;-84
2022/10/01 03:20:11;;;;;;;0.40;0.40;;;;;;;12.63;100.00;99229.28;4988982;28;20057;-84
2022/10/01 03:22:38;;;;;;;0.50;0.50;;;;;;;12.63;100.00;99228.47;4974333;28;20583;-82
2022/10/01 03:25:05;;;;;;;0.50;0.50;;;;;;;12.65;100.00;99227.13;4974037;28;20042;-83
2022/10/01 03:27:33;;;;;;;0.60;0.60;;;;;;;12.67;100.00;99230.41;4974181;28;20055;-83
2022/10/01 03:30:00;;;;;;;0.80;0.80;;;;;;;12.66;100.00;99220.66;4974150;28;20054;-82
2022/10/01 03:32:29;;;;;;;0.40;0.40;;;;;;;12.65;100.00;99210.09;4974545;28;20489;-84
2022/10/01 03:34:56;;;;;;;0.40;0.40;;;;;;;12.65;100.00;99204.66;4974194;28;20566;-83
2022/10/01 03:37:23;;;;;;;0.40;0.40;;;;;;;12.64;100.00;99211.97;4974085;28;20077;-83
2022/10/01 03:39:50;;;;;;;0.40;0.40;;;;;;;12.66;100.00;99212.53;4973876;28;20065;-84
2022/10/01 03:42:17;;;;;;;0.40;0.40;;;;;;;12.68;100.00;99210.38;4974018;28;20055;-83
2022/10/01 03:44:44;;;;;;;0.40;0.40;;;;;;;12.72;100.00;99211.53;4974024;28;20053;-83
2022/10/01 03:47:11;;;;;;;0.40;0.40;;;;;;;12.74;100.00;99208.56;4956192;28;20047;-83
2022/10/01 03:49:38;;;;;;;0.40;0.40;;;;;;;12.69;100.00;99206.63;4973761;28;20149;-84
2022/10/01 03:52:05;;;;;;;0.50;0.50;;;;;;;12.71;100.00;99212.59;4973593;28;20078;-84
2022/10/01 03:54:32;;;;;;;0.50;0.50;;;;;;;12.75;100.00;99207.50;4974050;28;20046;-83
2022/10/01 03:56:59;;;;;;;0.40;0.40;;;;;;;12.76;100.00;99209.09;4973951;28;20396;-83
2022/10/01 03:59:26;;;;;;;0.40;0.40;;;;;;;12.77;100.00;99208.06;4972600;28;20050;-84
2022/10/01 04:01:53;;;;;;;0.40;0.40;;;;;;;12.71;100.00;99206.34;4973967;28;20057;-82
2022/10/01 04:04:20;;;;;;;0.40;0.40;;;;;;;12.70;100.00;99208.25;4973347;28;20522;-83
2022/10/01 04:06:47;;;;;;;0.40;0.40;;;;;;;12.70;100.00;99202.00;4973243;28;20421;-84
2022/10/01 04:09:14;;;;;;;0.40;0.40;;;;;;;12.71;100.00;99206.34;4973595;28;20073;-84
2022/10/01 04:11:41;;;;;;;0.40;0.40;;;;;;;12.71;100.00;99198.22;4973566;28;20051;-83
2022/10/01 04:14:08;;;;;;;0.40;0.40;;;;;;;12.73;100.00;99213.16;4971343;28;20054;-85
2022/10/01 04:16:35;;;;;;;0.40;0.40;;;;;;;12.78;100.00;99215.09;4973264;28;20058;-84
2022/10/01 04:19:03;;;;;;;0.40;0.40;;;;;;;12.78;100.00;99209.69;4972925;28;20474;-83
2022/10/01 04:21:30;;;;;;;0.40;0.40;;;;;;;12.77;100.00;99208.06;4972892;28;20051;-83
2022/10/01 04:23:58;;;;;;;0.40;0.40;;;;;;;12.77;100.00;99216.19;4973081;28;20074;-82
2022/10/01 04:26:25;;;;;;;0.40;0.40;;;;;;;12.74;100.00;99217.50;4972203;28;20505;-82
2022/10/01 04:28:52;;;;;;;0.40;0.40;;;;;;;12.65;100.00;99208.19;4973303;28;20151;-83
2022/10/01 04:31:23;;;;;;;0.40;0.40;;;;;;;12.62;100.00;99210.59;4973394;28;20421;-84
2022/10/01 04:33:55;;;;;;;0.40;0.40;;;;;;;12.62;100.00;99210.59;4973247;28;20057;-84
2022/10/01 04:36:24;;;;;;;0.40;0.40;;;;;;;12.61;100.00;99208.94;4971647;28;20078;-84
2022/10/01 04:38:54;;;;;;;0.40;0.40;;;;;;;12.61;100.00;99219.75;4975252;28;20069;-84
2022/10/01 04:41:29;;;;;;;0.40;0.40;;;;;;;12.60;100.00;99207.31;4979633;28;20066;-83
2022/10/01 04:44:00;;;;;;;0.40;0.40;;;;;;;12.62;100.00;99211.41;4983361;28;20472;-84
2022/10/01 04:46:29;;;;;;;0.40;0.40;;;;;;;12.63;100.00;99204.91;4973579;28;20065;-84
2022/10/01 04:48:56;;;;;;;0.40;0.40;;;;;;;12.60;100.00;99207.31;4973615;28;20061;-83
2022/10/01 04:51:23;;;;;;;0.50;0.50;;;;;;;12.50;100.00;99214.22;4971388;28;20488;-84
2022/10/01 04:53:50;;;;;;;0.50;0.50;;;;;;;12.47;100.00;99213.94;4987632;28;20047;-84
2022/10/01 04:56:17;;;;;;;0.40;0.40;;;;;;;12.45;100.00;99207.94;4972408;28;20074;-84
2022/10/01 04:58:44;;;;;;;0.52;0.52;;;;;;;12.48;100.00;99204.72;4972263;28;20127;-83
2022/10/01 05:01:11;;;;;;;0.60;0.60;;;;;;;12.50;100.00;99208.00;4980278;28;20125;-84
2022/10/01 05:03:38;;;;;;;0.60;0.60;;;;;;;12.43;100.00;99212.78;4981151;28;20618;-84
2022/10/01 05:06:05;;;;;;;0.52;0.52;;;;;;;12.34;100.00;99217.81;4979212;28;20055;-84
2022/10/01 05:08:32;;;;;;;0.60;0.60;;;;;;;12.30;100.00;99209.38;4972145;28;20055;-84
2022/10/01 05:10:59;;;;;;;0.70;0.70;;;;;;;12.40;100.00;99213.28;4971956;28;20073;-85
2022/10/01 05:13:28;;;;;;;0.50;0.50;;;;;;;12.38;100.00;99216.25;4973623;28;20046;-85
2022/10/01 05:15:57;;;;;;;0.50;0.50;;;;;;;12.38;100.00;99210.81;4981009;28;20105;-86
2022/10/01 05:18:24;;;;;;;0.60;0.60;;;;;;;12.43;100.00;99215.50;4972187;28;20105;-84
2022/10/01 05:20:52;;;;;;;0.60;0.60;;;;;;;12.45;100.00;99213.34;4972273;28;20050;-84
2022/10/01 05:23:19;;;;;;;0.50;0.50;;;;;;;12.42;100.00;99211.97;4972099;28;20240;-83
2022/10/01 05:25:46;;;;;;;0.50;0.50;;;;;;;12.42;100.00;99206.56;4964723;28;20054;-85
2022/10/01 05:28:15;;;;;;;0.40;0.40;;;;;;;12.46;100.00;99205.00;4969149;28;20055;-84
2022/10/01 05:30:49;;;;;;;0.52;0.52;;;;;;;12.50;100.00;99205.28;4970825;28;20141;-87
2022/10/01 05:33:17;;;;;;;0.40;0.40;;;;;;;12.54;100.00;99201.84;4972137;28;20059;-84
2022/10/01 05:35:45;;;;;;;0.43;0.43;;;;;;;12.58;100.00;99197.56;4973007;28;20632;-86
2022/10/01 05:38:12;;;;;;;0.43;0.43;;;;;;;12.62;100.00;99189.75;4973417;28;20051;-87
2022/10/01 05:40:44;;;;;;;0.50;0.50;;;;;;;12.63;100.00;99191.38;4974188;28;20062;-87
2022/10/01 05:43:12;;;;;;;0.40;0.40;;;;;;;12.64;100.00;99193.03;4983547;28;20077;-87
2022/10/01 05:45:40;;;;;;;0.50;0.50;;;;;;;12.63;100.00;99187.84;4973901;28;20042;-86
2022/10/01 05:48:11;;;;;;;0.47;0.47;;;;;;;12.67;100.00;99186.28;4972438;28;20054;-87
2022/10/01 05:50:39;;;;;;;0.50;0.50;;;;;;;12.74;100.00;99186.91;4983920;28;20050;-86
2022/10/01 05:53:09;;;;;;;0.50;0.50;;;;;;;12.71;100.00;99188.22;4972213;28;20078;-92
2022/10/01 05:55:36;;;;;;;0.40;0.40;;;;;;;12.74;100.00;99186.91;4972958;28;20548;-89
2022/10/01 05:58:06;;;;;;;0.40;0.40;;;;;;;12.80;100.00;99185.88;4978287;28;20043;-87
2022/10/01 06:00:35;;;;;;;0.50;0.50;;;;;;;12.79;100.00;99181.53;4965592;28;20074;-88
2022/10/01 06:03:03;;;;;;;0.40;0.40;;;;;;;12.83;100.00;99174.53;4985763;28;20516;-90
2022/10/01 06:05:32;;;;;;;0.40;0.40;;;;;;;12.79;100.00;99182.34;4998989;28;20042;-90
2022/10/01 06:08:03;;;;;;;0.40;0.40;;;;;;;12.80;100.00;99177.75;4995998;28;20105;-88
2022/10/01 06:10:31;;;;;;;0.50;0.50;;;;;;;12.79;100.00;99176.13;4978847;28;20167;-94
2022/10/01 06:13:00;;;;;;;0.40;0.40;;;;;;;12.82;100.00;99181.03;4971197;28;20477;-90
2022/10/01 06:15:33;;;;;;;0.50;0.50;;;;;;;12.87;100.00;99180.28;4961817;28;20581;-90
2022/10/01 06:18:23;;;;;;;0.40;0.40;;;;;;;12.85;100.00;99169.69;4970100;28;20061;-87
2022/10/01 06:21:15;;;;;;;0.40;0.40;;;;;;;12.93;100.00;99173.81;4981603;28;20075;-93
2022/10/01 06:23:43;;;;;;;0.40;0.40;;;;;;;12.96;100.00;99170.59;4967456;28;20050;-87
2022/10/01 06:26:11;;;;;;;0.40;0.40;;;;;;;13.02;100.00;99164.97;4977047;28;20047;-92
2022/10/01 06:28:52;;;;;;;0.40;0.40;;;;;;;13.14;100.00;99163.97;4977444;28;20537;-90
2022/10/01 06:31:20;;;;;;;0.40;0.40;;;;;;;13.16;100.00;99153.72;4975665;28;20057;-88
2022/10/01 06:33:48;;;;;;;0.40;0.40;;;;;;;13.24;100.00;99169.50;4988475;28;20113;-87
2022/10/01 06:36:16;;;;;;;0.40;0.40;;;;;;;13.25;100.00;99160.31;4963135;28;20051;-87
2022/10/01 06:38:47;;;;;;;0.40;0.40;;;;;;;13.20;100.00;99162.97;4965462;28;20061;-88
2022/10/01 06:41:14;;;;;;;0.40;0.40;;;;;;;13.24;100.00;99158.66;4965521;28;20055;-92
2022/10/01 06:43:42;;;;;;;0.40;0.40;;;;;;;13.23;100.00;99157.03;4973732;28;20494;-86
2022/10/01 06:46:09;;;;;;;0.40;0.40;;;;;;;13.15;100.00;99158.31;4966965;28;20051;-86
2022/10/01 06:48:37;;;;;;;0.40;0.40;;;;;;;13.16;100.00;99159.94;4964448;28;20597;-88
2022/10/01 06:51:07;;;;;;;0.40;0.40;;;;;;;13.16;100.00;99156.41;4967519;28;20054;-86
2022/10/01 06:53:38;;;;;;;0.40;0.40;;;;;;;13.18;100.00;99151.56;4974751;28;20047;-84
2022/10/01 06:56:18;;;;;;;0.40;0.40;;;;;;;13.20;100.00;99152.13;4975078;28;20058;-84
2022/10/01 06:58:45;;;;;;;0.40;0.40;;;;;;;13.19;100.00;99136.94;4975713;28;20046;-87
2022/10/01 07:01:15;;;;;;;0.50;0.50;;;;;;;13.27;100.00;99141.09;4977502;28;20047;-86
2022/10/01 07:03:43;;;;;;;0.40;0.40;;;;;;;13.31;100.00;99143.03;4976166;28;20055;-88
2022/10/01 07:06:11;;;;;;;0.40;0.40;;;;;;;13.34;100.00;99141.69;4978528;28;20196;-88
2022/10/01 07:08:41;;;;;;;0.40;0.40;;;;;;;13.22;100.00;99139.16;4962361;28;20054;-86
2022/10/01 07:11:08;;;;;;;0.40;0.40;;;;;;;13.15;100.00;99128.50;4975629;28;20067;-87
2022/10/01 07:13:39;;;;;;;0.40;0.40;;;;;;;13.20;100.00;99130.44;4977177;28;20061;-88
2022/10/01 07:16:07;;;;;;;0.40;0.40;;;;;;;13.24;100.00;99136.97;4974542;28;20069;-85
2022/10/01 07:18:35;;;;;;;0.43;0.43;;;;;;;13.34;100.00;99128.97;4976357;28;20078;-91
2022/10/01 07:21:04;;;;;;;0.40;0.40;;;;;;;13.41;100.00;99126.03;4974832;28;20061;-85
2022/10/01 07:23:32;;;;;;;0.40;0.40;;;;;;;13.46;100.00;99128.78;4981918;28;20347;-86
2022/10/01 07:26:03;;;;;;;0.40;0.40;;;;;;;13.51;100.00;99130.72;4983849;28;20055;-84
2022/10/01 07:28:31;;;;;;;0.40;0.40;;;;;;;13.46;100.00;99120.66;4979697;28;20081;-86
2022/10/01 07:31:10;;;;;;;0.40;0.40;;;;;;;13.49;100.00;99127.44;4972636;28;20054;-83
2022/10/01 07:33:41;;;;;;;0.40;0.40;;;;;;;13.53;100.00;99115.00;4991036;28;20046;-87
2022/10/01 07:36:10;;;;;;;0.40;0.40;;;;;;;13.53;100.00;99109.59;4971687;28;20125;-88
2022/10/01 07:38:38;;;;;;;0.40;0.40;;;;;;;13.55;100.00;99121.00;4990345;28;20108;-85
2022/10/01 07:41:05;;;;;;;0.40;0.40;;;;;;;13.51;100.00;99109.03;4975177;28;20054;-89
2022/10/01 07:43:33;;;;;;;0.40;0.40;;;;;;;13.55;99.96;99104.72;4973562;28;20047;-86
2022/10/01 07:46:02;;;;;;;0.40;0.40;;;;;;;13.51;99.69;99103.59;4958508;28;20050;-86
2022/10/01 07:48:30;;;;;;;0.40;0.40;;;;;;;13.39;99.70;99110.03;4978989;28;20051;-89
2022/10/01 07:50:58;;;;;;;0.40;0.40;;;;;;;13.44;100.00;99095.69;4968850;28;20062;-87
2022/10/01 07:53:27;;;;;;;0.40;0.40;;;;;;;13.55;99.99;99096.59;4994533;28;20046;-88
2022/10/01 07:55:55;;;;;;;0.43;0.43;;;;;;;13.55;100.00;99085.75;4999274;28;20077;-90
2022/10/01 07:58:22;;;;;;;0.40;0.40;;;;;;;13.74;99.77;99084.22;4995039;28;20153;-85
2022/10/01 08:00:57;;;;;;;0.40;0.40;;;;;;;13.90;99.07;99087.84;4987334;28;20046;-89
2022/10/01 08:03:40;;;;;;;0.40;0.40;;;;;;;14.04;98.57;99082.72;4985978;28;20075;-90
2022/10/01 08:06:11;;;;;;;0.40;0.40;;;;;;;14.07;97.99;99074.84;4980345;28;20068;-87
2022/10/01 08:08:39;;;;;;;0.40;0.40;;;;;;;14.34;97.14;99084.72;4983830;28;20551;-88
2022/10/01 08:11:09;;;;;;;0.35;0.35;;;;;;;14.40;96.08;99077.41;4981077;28;20055;-86
2022/10/01 08:13:37;;;;;;;0.40;0.40;;;;;;;14.41;95.70;99076.34;4982392;28;20050;-87
2022/10/01 08:16:14;;;;;;;0.40;0.40;;;;;;;14.36;95.76;99071.72;4957876;28;20529;-87
2022/10/01 08:18:41;;;;;;;0.40;0.40;;;;;;;14.36;96.20;99070.91;4973323;28;20137;-86
2022/10/01 08:21:09;;;;;;;0.40;0.40;;;;;;;14.38;96.14;99064.13;4980121;28;20476;-87
2022/10/01 08:23:36;;;;;;;0.40;0.40;;;;;;;14.45;95.81;99055.69;4979830;28;20082;-87
2022/10/01 08:26:06;;;;;;;0.50;0.50;;;;;;;14.50;95.60;99059.22;4975571;28;20053;-88
2022/10/01 08:28:34;;;;;;;0.40;0.40;;;;;;;14.53;94.97;99049.75;4975593;28;20044;-86
2022/10/01 08:31:12;;;;;;;0.40;0.40;;;;;;;14.49;94.75;99054.09;4974894;28;20432;-87
2022/10/01 08:34:00;;;;;;;0.40;0.40;;;;;;;14.46;95.08;99044.59;4965464;28;20081;-89
2022/10/01 08:37:14;;;;;;;0.40;0.40;;;;;;;14.36;95.14;99031.00;4987899;28;20054;-89
2022/10/01 08:39:43;;;;;;;0.40;0.40;;;;;;;14.46;95.25;99044.59;4975767;28;20059;-85
2022/10/01 08:42:46;;;;;;;0.40;0.40;;;;;;;14.46;95.34;99049.22;4984286;28;20052;-90
2022/10/01 08:45:26;;;;;;;0.40;0.40;;;;;;;14.34;94.88;99040.50;4983520;28;20121;-86
2022/10/01 08:48:18;;;;;;;0.40;0.40;;;;;;;14.21;95.27;99042.63;4990357;28;20152;-86
2022/10/01 08:50:51;;;;;;;0.40;0.40;;;;;;;14.13;95.55;99040.44;4975937;28;20074;-90
2022/10/01 08:53:29;;;;;;;0.40;0.40;;;;;;;14.11;96.31;99029.03;4983371;28;20058;-89
2022/10/01 08:56:00;;;;;;;0.40;0.40;;;;;;;14.07;96.64;99033.34;4976442;28;20058;-89
2022/10/01 08:58:36;;;;;;;0.40;0.40;;;;;;;14.06;96.90;99034.44;4985772;28;20055;-89
2022/10/01 09:01:04;;;;;;;0.40;0.40;;;;;;;14.06;97.20;99029.00;4975541;28;20498;-87
2022/10/01 09:03:32;;;;;;;0.40;0.40;;;;;;;14.05;97.35;99022.78;4974427;28;20100;-89
2022/10/01 09:06:22;;;;;;;0.40;0.40;;;;;;;14.09;97.65;99028.47;4989508;28;20073;-88
2022/10/01 09:09:18;;;;;;;0.40;0.40;;;;;;;14.04;97.73;99029.25;4983294;28;20109;-89
2022/10/01 09:12:04;;;;;;;0.30;0.30;;;;;;;13.99;97.93;99018.41;4978058;28;20153;-89
2022/10/01 09:15:01;;;;;;;0.40;0.40;;;;;;;13.97;98.06;99027.88;4990794;28;20070;-89
2022/10/01 09:18:03;;;;;;;0.40;0.40;;;;;;;13.93;98.49;99018.66;4979157;28;20140;-87
2022/10/01 09:20:57;;;;;;;0.40;0.40;;;;;;;13.87;98.82;99017.81;4996496;28;20101;-89
2022/10/01 09:23:25;;;;;;;0.45;0.45;;;;;;;13.79;99.00;99011.00;4989112;28;20050;-88
2022/10/01 09:25:52;;;;;;;0.40;0.40;;;;;;;13.82;99.67;99010.50;4977171;28;20046;-87
2022/10/01 09:28:23;;;;;;;0.40;0.40;;;;;;;13.93;99.97;99003.19;4978433;28;20042;-87
2022/10/01 09:30:56;;;;;;;0.40;0.40;;;;;;;14.02;99.99;99003.47;4980398;28;20601;-84
2022/10/01 09:33:31;;;;;;;0.40;0.40;;;;;;;14.05;99.96;99005.66;4975769;28;20054;-88
2022/10/01 09:36:02;;;;;;;0.40;0.40;;;;;;;14.05;99.86;99001.06;4979434;28;20142;-87
2022/10/01 09:38:42;;;;;;;0.40;0.40;;;;;;;14.06;99.43;98985.59;4982571;28;20149;-87
2022/10/01 09:41:11;;;;;;;0.50;0.50;;;;;;;14.05;99.37;98983.94;4981225;28;20097;-87
2022/10/01 09:43:42;;;;;;;0.40;0.40;;;;;;;13.97;99.39;98974.44;4972340;28;20054;-88
2022/10/01 09:46:15;;;;;;;0.40;0.40;;;;;;;13.94;99.92;98977.69;4971924;28;20514;-88
2022/10/01 09:48:58;;;;;;;0.40;0.40;;;;;;;13.98;99.94;98970.66;4978283;28;20054;-87
2022/10/01 09:51:38;;;;;;;0.40;0.40;;;;;;;13.96;100.00;98966.56;5007264;23;20550;-87
2022/10/01 09:54:18;;;;;;;0.40;0.40;;;;;;;13.94;99.89;98963.31;4971212;28;20065;-88
2022/10/01 09:57:04;;;;;;;0.40;0.40;;;;;;;14.01;100.00;98958.44;4961497;28;20128;-87
2022/10/01 09:59:59;;;;;;;0.40;0.40;;;;;;;14.12;100.00;98962.81;4967593;28;20046;-86
2022/10/01 10:02:38;;;;;;;0.40;0.40;;;;;;;14.12;99.47;98949.22;4970407;28;20903;-89
2022/10/01 10:05:22;;;;;;;0.40;0.40;;;;;;;14.12;99.62;98949.22;4961703;28;20151;-87
2022/10/01 10:07:56;;;;;;;0.40;0.40;;;;;;;14.17;99.52;98932.97;4983816;28;20047;-89
2022/10/01 10:10:34;;;;;;;0.40;0.40;;;;;;;14.28;99.76;98937.31;4953018;28;20059;-87
2022/10/01 10:13:12;;;;;;;0.40;0.40;;;;;;;14.38;99.54;98931.09;4958764;28;20059;-89
2022/10/01 10:15:59;;;;;;;0.40;0.40;;;;;;;14.35;99.14;98925.38;4979010;28;20058;-88
2022/10/01 10:18:53;;;;;;;0.50;0.50;;;;;;;14.41;99.36;98927.03;5009838;28;20525;-87
2022/10/01 10:21:59;;;;;;;0.40;0.40;;;;;;;14.36;99.18;98935.16;4990610;28;20058;-87
2022/10/01 10:24:36;;;;;;;0.38;0.38;;;;;;;14.35;99.09;98928.09;4973965;28;20062;-86
2022/10/01 10:27:26;;;;;;;0.40;0.40;;;;;;;14.41;99.22;98932.44;4964859;28;20055;-86
2022/10/01 10:30:04;;;;;;;0.40;0.40;;;;;;;14.39;98.03;98926.47;4956650;28;20055;-86
2022/10/01 10:32:33;;;;;;;0.40;0.40;;;;;;;14.41;97.26;98932.44;4959493;28;20062;-87
2022/10/01 10:35:04;;;;;;;0.40;0.40;;;;;;;14.46;96.97;98932.44;4967794;28;20070;-87
2022/10/01 10:37:36;;;;;;;0.40;0.40;;;;;;;14.48;96.12;98922.94;4974714;28;20085;-88
2022/10/01 10:40:07;;;;;;;0.40;0.40;;;;;;;14.51;95.18;98924.31;4963623;28;20074;-87
2022/10/01 10:42:37;;;;;;;0.40;0.40;;;;;;;14.57;95.11;98925.13;4963710;28;20051;-88
2022/10/01 10:45:15;;;;;;;0.40;0.40;;;;;;;14.59;95.14;98912.09;4972010;28;20502;-85
2022/10/01 10:47:50;;;;;;;0.40;0.40;;;;;;;14.54;95.06;98915.63;5002153;28;20057;-87
2022/10/01 10:50:38;;;;;;;0.40;0.40;;;;;;;14.55;95.29;98911.00;4982310;28;20151;-86
2022/10/01 10:53:42;;;;;;;0.40;0.40;;;;;;;14.46;95.54;98910.72;4973668;28;20054;-86
2022/10/01 10:56:22;;;;;;;0.40;0.40;;;;;;;14.39;95.58;98905.56;4975102;28;20496;-87
2022/10/01 10:58:50;;;;;;;0.40;0.40;;;;;;;14.30;95.47;98904.47;4974200;28;20097;-89
2022/10/01 11:01:38;;;;;;;0.40;0.40;;;;;;;14.32;95.60;98903.09;4968538;28;20061;-86
2022/10/01 11:04:23;;;;;;;0.40;0.40;;;;;;;14.44;95.49;98902.84;4959260;28;20468;-86
2022/10/01 11:07:00;;;;;;;0.50;0.50;;;;;;;14.74;94.29;98896.59;4945246;28;20051;-85
2022/10/01 11:09:46;;;;;;;0.40;0.40;;;;;;;15.06;92.52;98895.41;4974783;28;20051;-86
2022/10/01 11:12:24;;;;;;;0.45;0.45;;;;;;;15.18;91.58;98892.41;4974618;28;20050;-86
2022/10/01 11:14:54;;;;;;;0.40;0.40;;;;;;;15.26;91.06;98891.81;4971284;28;20051;-85
2022/10/01 11:17:24;;;;;;;0.40;0.40;;;;;;;15.36;90.37;98899.13;4967451;28;20058;-87
2022/10/01 11:20:03;;;;;;;0.40;0.40;;;;;;;15.56;90.07;98882.72;4974086;28;20609;-87
2022/10/01 11:22:46;;;;;;;0.40;0.40;;;;;;;15.60;89.24;98881.06;4976104;28;20101;-86
2022/10/01 11:25:24;;;;;;;0.40;0.40;;;;;;;15.43;88.80;98883.34;4974987;28;20085;-86
2022/10/01 11:27:59;;;;;;;0.40;0.40;;;;;;;15.29;88.70;98874.13;4963641;28;20162;-86
2022/10/01 11:30:58;;;;;;;0.40;0.40;;;;;;;15.14;89.00;98884.00;4966511;28;20046;-86
2022/10/01 11:33:58;;;;;;;0.40;0.40;;;;;;;15.11;89.00;98870.13;4956452;28;20513;-86
2022/10/01 11:37:00;;;;;;;0.40;0.40;;;;;;;15.05;88.50;98871.25;4960039;28;20055;-86
2022/10/01 11:39:33;;;;;;;0.40;0.40;;;;;;;15.03;89.04;98865.28;4970467;28;20317;-86
2022/10/01 11:42:05;;;;;;;0.40;0.40;;;;;;;15.08;88.86;98854.38;4974271;28;20054;-87
2022/10/01 11:44:44;;;;;;;0.40;0.40;;;;;;;15.00;87.90;98858.50;4985450;28;20081;-86
2022/10/01 11:47:29;;;;;;;0.40;0.40;;;;;;;14.99;88.64;98859.59;4973517;28;20042;-90
2022/10/01 11:50:04;;;;;;;0.35;0.35;;;;;;;14.96;88.96;98851.97;4975059;28;20525;-86
2022/10/01 11:52:36;;;;;;;0.40;0.40;;;;;;;14.94;89.37;98849.56;4991689;28;20054;-89
2022/10/01 12:01:14;;;;;;;0.40;0.40;;;;;;;14.68;89.87;98854.22;4994826;28;20515;-90